Time;durP1;ratioP1;P1;durP2;ratioP2;P2;SDS_P1;SDS_P2;PMS_P1;PMS_P2;Temp;Humidity;BMP_temperature;BMP_pressure;BME280_temperature;BME280_humidity;BME280_pressure;Samples;Min_cycle;Max_cycle;Signal;HPM_P1;HPM_P2
2021/05/04 00:00:48;;;;;;;17.30;15.80;;;;;;;;;;5009194;28;20382;-84
2021/05/04 00:03:14;;;;;;;17.00;15.50;;;;;;;;;;5009192;28;20367;-85
2021/05/04 00:05:40;;;;;;;17.92;16.33;;;;;;;;;;5008972;28;20461;-84
2021/05/04 00:08:06;;;;;;;18.30;16.40;;;;;;;;;;5008954;28;20399;-82
2021/05/04 00:10:32;;;;;;;17.65;16.00;;;;;;;;;;5008924;28;20737;-81
2021/05/04 00:12:58;;;;;;;18.30;16.60;;;;;;;;;;5008682;28;20375;-84
2021/05/04 00:15:24;;;;;;;18.60;16.95;;;;;;;;;;5024141;28;20729;-84
2021/05/04 00:17:50;;;;;;;17.63;16.02;;;;;;;;;;5024054;28;21093;-84
2021/05/04 00:20:16;;;;;;;17.60;16.05;;;;;;;;;;5008665;28;20718;-82
2021/05/04 00:22:42;;;;;;;16.40;15.00;;;;;;;;;;5009080;28;20382;-85
2021/05/04 00:25:08;;;;;;;17.23;15.70;;;;;;;;;;5023979;28;20383;-83
2021/05/04 00:27:34;;;;;;;18.05;16.42;;;;;;;;;;5008666;28;20876;-81
2021/05/04 00:30:02;;;;;;;17.67;16.17;;;;;;;;;;5009411;28;21178;-81
2021/05/04 00:32:27;;;;;;;17.98;16.10;;;;;;;;;;5028031;28;20438;-84
2021/05/04 00:34:53;;;;;;;17.23;15.73;;;;;;;;;;5012593;28;20415;-85
2021/05/04 00:37:19;;;;;;;18.97;17.00;;;;;;;;;;5012766;28;20375;-84
2021/05/04 00:39:45;;;;;;;17.63;16.13;;;;;;;;;;5012714;28;20385;-85
2021/05/04 00:42:11;;;;;;;17.42;15.82;;;;;;;;;;5012443;28;20375;-83
2021/05/04 00:44:37;;;;;;;18.75;16.98;;;;;;;;;;5012705;28;20879;-81
2021/05/04 00:47:03;;;;;;;18.27;16.67;;;;;;;;;;5027646;28;20387;-81
2021/05/04 00:49:29;;;;;;;17.67;16.08;;;;;;;;;;5012598;28;20407;-84
2021/05/04 00:51:55;;;;;;;19.27;17.37;;;;;;;;;;5012483;28;20406;-84
2021/05/04 00:54:23;;;;;;;18.00;16.30;;;;;;;;;;5012371;28;21163;-83
2021/05/04 00:56:49;;;;;;;17.85;16.23;;;;;;;;;;5012160;28;20363;-81
2021/05/04 00:59:16;;;;;;;17.02;15.52;;;;;;;;;;5012242;28;20853;-82
2021/05/04 01:01:42;;;;;;;16.45;14.95;;;;;;;;;;5012229;28;20385;-83
2021/05/04 01:04:08;;;;;;;16.65;15.15;;;;;;;;;;5027547;28;20375;-82
2021/05/04 01:06:34;;;;;;;16.35;14.85;;;;;;;;;;5027253;28;20371;-82
2021/05/04 01:09:00;;;;;;;16.02;14.60;;;;;;;;;;5011877;28;20457;-82
2021/05/04 01:11:26;;;;;;;15.15;13.85;;;;;;;;;;5011862;28;20371;-84
2021/05/04 01:13:52;;;;;;;15.07;13.68;;;;;;;;;;5012071;28;21736;-85
2021/05/04 01:16:19;;;;;;;15.05;13.65;;;;;;;;;;5012318;28;20367;-83
2021/05/04 01:18:46;;;;;;;16.23;14.85;;;;;;;;;;5012195;28;20398;-81
2021/05/04 01:21:12;;;;;;;15.07;13.68;;;;;;;;;;5027059;28;20868;-82
2021/05/04 01:23:38;;;;;;;15.50;14.10;;;;;;;;;;5027129;28;20375;-81
2021/05/04 01:26:05;;;;;;;15.15;13.77;;;;;;;;;;5011661;28;20383;-85
2021/05/04 01:28:31;;;;;;;14.60;13.30;;;;;;;;;;5012019;28;20409;-85
2021/05/04 01:30:57;;;;;;;14.23;12.93;;;;;;;;;;5012009;28;20394;-82
2021/05/04 01:33:23;;;;;;;14.25;12.95;;;;;;;;;;5026817;28;20498;-81
2021/05/04 01:35:49;;;;;;;14.70;13.40;;;;;;;;;;5011720;28;20888;-84
2021/05/04 01:38:16;;;;;;;14.25;13.02;;;;;;;;;;5026934;28;20383;-84
2021/05/04 01:40:42;;;;;;;14.17;12.87;;;;;;;;;;5011380;28;20367;-82
2021/05/04 01:43:08;;;;;;;13.45;12.20;;;;;;;;;;5011872;28;20368;-85
2021/05/04 01:45:34;;;;;;;13.20;12.00;;;;;;;;;;5026674;28;20379;-83
2021/05/04 01:48:00;;;;;;;12.68;11.48;;;;;;;;;;5011405;28;20410;-82
2021/05/04 01:50:26;;;;;;;12.13;11.02;;;;;;;;;;5026526;28;20494;-83
2021/05/04 01:52:52;;;;;;;12.32;11.15;;;;;;;;;;5026228;28;20741;-82
2021/05/04 01:55:18;;;;;;;12.05;10.85;;;;;;;;;;5026384;28;20383;-83
2021/05/04 01:57:44;;;;;;;11.60;10.55;;;;;;;;;;5025970;28;20494;-83
2021/05/04 02:00:10;;;;;;;11.97;10.87;;;;;;;;;;5011341;28;20379;-81
2021/05/04 02:02:37;;;;;;;11.52;10.35;;;;;;;;;;5011357;28;20406;-84
2021/05/04 02:05:03;;;;;;;11.30;10.30;;;;;;;;;;5026382;28;20391;-84
2021/05/04 02:07:30;;;;;;;9.83;8.93;;;;;;;;;;5010743;28;20378;-82
2021/05/04 02:09:56;;;;;;;10.18;9.07;;;;;;;;;;5011096;28;20588;-80
2021/05/04 02:12:22;;;;;;;9.57;8.67;;;;;;;;;;5011027;28;20375;-83
2021/05/04 02:14:48;;;;;;;9.68;8.75;;;;;;;;;;5010966;28;20386;-83
2021/05/04 02:17:14;;;;;;;9.02;8.02;;;;;;;;;;5010774;28;20375;-82
2021/05/04 02:19:41;;;;;;;8.90;8.00;;;;;;;;;;5010850;28;20734;-80
2021/05/04 02:22:07;;;;;;;9.15;8.25;;;;;;;;;;5025785;28;20812;-81
2021/05/04 02:24:33;;;;;;;8.98;8.07;;;;;;;;;;5010730;28;20458;-80
2021/05/04 02:26:59;;;;;;;8.85;8.00;;;;;;;;;;5010575;28;20375;-80
2021/05/04 02:29:25;;;;;;;8.63;7.82;;;;;;;;;;5010551;28;20893;-82
2021/05/04 02:31:51;;;;;;;9.05;8.25;;;;;;;;;;5010360;28;20382;-83
2021/05/04 02:34:17;;;;;;;8.17;7.37;;;;;;;;;;5010526;28;20399;-85
2021/05/04 02:36:42;;;;;;;8.43;7.65;;;;;;;;;;5010194;28;20372;-82
2021/05/04 02:39:09;;;;;;;7.85;7.10;;;;;;;;;;5010593;28;20779;-83
2021/05/04 02:41:35;;;;;;;9.05;8.05;;;;;;;;;;5025650;28;20496;-82
2021/05/04 02:44:02;;;;;;;7.97;7.18;;;;;;;;;;5025417;28;20430;-84
2021/05/04 02:46:31;;;;;;;8.20;7.30;;;;;;;;;;5010499;28;20458;-85
2021/05/04 02:48:57;;;;;;;7.78;7.03;;;;;;;;;;5010062;28;20512;-85
2021/05/04 02:51:23;;;;;;;7.40;6.70;;;;;;;;;;5009930;28;20386;-82
2021/05/04 02:53:49;;;;;;;7.33;6.63;;;;;;;;;;5009725;28;20379;-84
2021/05/04 02:56:15;;;;;;;7.78;6.97;;;;;;;;;;5010204;28;20490;-82
2021/05/04 02:58:41;;;;;;;7.38;6.68;;;;;;;;;;5009565;28;20829;-83
2021/05/04 03:01:08;;;;;;;8.38;6.88;;;;;;;;;;5025184;28;20395;-81
2021/05/04 03:03:35;;;;;;;8.18;7.18;;;;;;;;;;5025184;28;20406;-83
2021/05/04 03:06:02;;;;;;;8.00;7.28;;;;;;;;;;5010390;28;20368;-86
2021/05/04 03:08:28;;;;;;;8.15;7.32;;;;;;;;;;5025156;28;20399;-85
2021/05/04 03:10:54;;;;;;;7.65;6.85;;;;;;;;;;5009569;28;20377;-83
2021/05/04 03:13:27;;;;;;;7.60;6.63;;;;;;;;;;5024175;28;20399;-82
2021/05/04 03:15:53;;;;;;;7.30;6.67;;;;;;;;;;5028315;28;20859;-81
2021/05/04 03:18:19;;;;;;;7.85;7.05;;;;;;;;;;5028221;28;20390;-83
2021/05/04 03:20:45;;;;;;;6.80;6.20;;;;;;;;;;5029526;28;20369;-82
2021/05/04 03:23:11;;;;;;;7.57;6.83;;;;;;;;;;5029475;28;20437;-83
2021/05/04 03:25:37;;;;;;;7.47;6.68;;;;;;;;;;5028190;28;20472;-83
2021/05/04 03:28:04;;;;;;;8.93;7.00;;;;;;;;;;5029297;28;20916;-85
2021/05/04 03:30:30;;;;;;;6.88;6.18;;;;;;;;;;5028150;28;20430;-84
2021/05/04 03:32:57;;;;;;;7.83;6.87;;;;;;;;;;5029224;28;20374;-84
2021/05/04 03:35:23;;;;;;;7.90;7.03;;;;;;;;;;5029271;28;20393;-81
2021/05/04 03:37:49;;;;;;;10.02;7.00;;;;;;;;;;5028944;28;20856;-82
2021/05/04 03:40:15;;;;;;;8.02;7.22;;;;;;;;;;5029322;28;20354;-83
2021/05/04 03:42:43;;;;;;;7.38;6.68;;;;;;;;;;5022676;28;20383;-81
2021/05/04 03:45:13;;;;;;;7.65;6.95;;;;;;;;;;5016734;28;20380;-83
2021/05/04 03:47:39;;;;;;;9.88;7.50;;;;;;;;;;5024248;28;20386;-83
2021/05/04 03:50:07;;;;;;;7.88;7.18;;;;;;;;;;5024202;28;20461;-84
2021/05/04 03:52:34;;;;;;;7.78;7.05;;;;;;;;;;5009385;28;20849;-83
2021/05/04 03:55:00;;;;;;;9.35;6.97;;;;;;;;;;5009400;28;20382;-82
2021/05/04 03:57:26;;;;;;;8.32;7.32;;;;;;;;;;5024305;28;20383;-85
2021/05/04 03:59:52;;;;;;;7.35;6.63;;;;;;;;;;5024134;28;20402;-86
2021/05/04 04:02:18;;;;;;;8.20;6.85;;;;;;;;;;5008907;28;20406;-83
2021/05/04 04:04:44;;;;;;;7.80;7.00;;;;;;;;;;5009118;28;20391;-83
2021/05/04 04:07:10;;;;;;;9.20;6.67;;;;;;;;;;5024134;28;20432;-82
2021/05/04 04:09:36;;;;;;;8.20;6.85;;;;;;;;;;5024028;28;20419;-82
2021/05/04 04:12:02;;;;;;;9.80;6.95;;;;;;;;;;5008831;28;20394;-84
2021/05/04 04:14:28;;;;;;;8.20;6.93;;;;;;;;;;5009023;28;20367;-81
2021/05/04 04:16:54;;;;;;;7.82;6.93;;;;;;;;;;5008943;28;20367;-85
2021/05/04 04:19:20;;;;;;;9.10;7.30;;;;;;;;;;5009009;28;20418;-81
2021/05/04 04:21:48;;;;;;;7.80;7.00;;;;;;;;;;5008758;28;20379;-85
2021/05/04 04:24:14;;;;;;;8.65;7.13;;;;;;;;;;5007437;28;20858;-83
2021/05/04 04:26:40;;;;;;;11.32;7.70;;;;;;;;;;5009089;28;20378;-83
2021/05/04 04:29:06;;;;;;;8.65;7.85;;;;;;;;;;5008663;28;20883;-81
2021/05/04 04:31:32;;;;;;;9.77;7.43;;;;;;;;;;5008805;28;20379;-83
2021/05/04 04:33:58;;;;;;;9.45;7.45;;;;;;;;;;5007265;28;20375;-84
2021/05/04 04:36:24;;;;;;;9.57;7.65;;;;;;;;;;5007308;28;20953;-81
2021/05/04 04:38:50;;;;;;;7.95;7.15;;;;;;;;;;5008796;28;20379;-81
2021/05/04 04:41:17;;;;;;;8.45;7.63;;;;;;;;;;5008870;28;20379;-83
2021/05/04 04:43:43;;;;;;;8.18;7.38;;;;;;;;;;5008604;28;20470;-84
2021/05/04 04:46:09;;;;;;;9.23;7.85;;;;;;;;;;5008698;28;20462;-84
2021/05/04 04:48:35;;;;;;;8.18;7.32;;;;;;;;;;5008665;28;20835;-83
2021/05/04 04:51:01;;;;;;;7.88;7.10;;;;;;;;;;5008667;28;20498;-84
2021/05/04 04:53:27;;;;;;;7.70;6.90;;;;;;;;;;5008800;28;20379;-82
2021/05/04 04:55:53;;;;;;;8.03;7.17;;;;;;;;;;5008718;28;20438;-82
2021/05/04 04:58:19;;;;;;;8.60;6.83;;;;;;;;;;5008324;28;20387;-82
2021/05/04 05:00:45;;;;;;;7.97;7.03;;;;;;;;;;5008444;28;20391;-84
2021/05/04 05:03:11;;;;;;;7.95;7.05;;;;;;;;;;5007440;28;20394;-85
2021/05/04 05:05:37;;;;;;;7.30;6.50;;;;;;;;;;5008634;28;20380;-82
2021/05/04 05:08:03;;;;;;;7.57;6.78;;;;;;;;;;5008148;28;20395;-83
2021/05/04 05:10:29;;;;;;;9.55;6.10;;;;;;;;;;5008539;28;20382;-81
2021/05/04 05:12:55;;;;;;;7.80;6.43;;;;;;;;;;5014183;28;20378;-82
2021/05/04 05:15:21;;;;;;;8.02;6.55;;;;;;;;;;5018165;28;20399;-80
2021/05/04 05:17:47;;;;;;;8.00;6.70;;;;;;;;;;5011680;28;20492;-83
2021/05/04 05:20:13;;;;;;;7.27;6.57;;;;;;;;;;5010723;28;20474;-85
2021/05/04 05:22:40;;;;;;;7.63;6.40;;;;;;;;;;5040375;28;20805;-82
2021/05/04 05:25:06;;;;;;;8.18;7.15;;;;;;;;;;5049950;28;20469;-83
2021/05/04 05:27:33;;;;;;;8.77;6.43;;;;;;;;;;5049739;28;20872;-82
2021/05/04 05:29:59;;;;;;;8.32;6.35;;;;;;;;;;5041619;28;20828;-81
2021/05/04 05:32:26;;;;;;;10.23;6.90;;;;;;;;;;5014244;28;20389;-86
2021/05/04 05:34:52;;;;;;;8.40;6.40;;;;;;;;;;5015040;28;20869;-83
2021/05/04 05:37:18;;;;;;;7.90;6.90;;;;;;;;;;5020983;28;20394;-82
2021/05/04 05:39:44;;;;;;;7.57;6.83;;;;;;;;;;5019395;28;20763;-86
2021/05/04 05:42:10;;;;;;;7.17;6.40;;;;;;;;;;5020390;28;20373;-85
2021/05/04 05:44:36;;;;;;;10.50;7.22;;;;;;;;;;5026706;28;20383;-86
2021/05/04 05:47:03;;;;;;;9.18;6.70;;;;;;;;;;5026202;28;20781;-85
2021/05/04 05:49:29;;;;;;;9.45;6.50;;;;;;;;;;5029168;28;20504;-80
2021/05/04 05:51:55;;;;;;;8.30;6.43;;;;;;;;;;5023151;28;20427;-83
2021/05/04 05:54:21;;;;;;;7.50;6.47;;;;;;;;;;5009327;28;20382;-84
2021/05/04 05:56:48;;;;;;;8.13;6.53;;;;;;;;;;5016025;28;20424;-84
2021/05/04 05:59:14;;;;;;;9.27;6.13;;;;;;;;;;5031817;28;20402;-83
2021/05/04 06:01:41;;;;;;;8.20;6.38;;;;;;;;;;5046822;28;20383;-83
2021/05/04 06:04:07;;;;;;;8.90;6.93;;;;;;;;;;5047320;28;20391;-83
2021/05/04 06:06:33;;;;;;;6.97;6.28;;;;;;;;;;5048497;28;20380;-82
2021/05/04 06:08:59;;;;;;;7.32;6.18;;;;;;;;;;5048882;28;20774;-83
2021/05/04 06:11:25;;;;;;;7.50;6.47;;;;;;;;;;5050301;28;20371;-83
2021/05/04 06:13:51;;;;;;;7.80;6.07;;;;;;;;;;5050357;28;20422;-83
2021/05/04 06:16:17;;;;;;;7.03;6.30;;;;;;;;;;5049098;28;20715;-83
2021/05/04 06:18:42;;;;;;;6.32;5.70;;;;;;;;;;5049529;28;20467;-83
2021/05/04 06:21:08;;;;;;;7.15;6.10;;;;;;;;;;5048050;28;20379;-82
2021/05/04 06:23:34;;;;;;;6.50;5.90;;;;;;;;;;5049220;28;20907;-82
2021/05/04 06:26:01;;;;;;;6.75;6.05;;;;;;;;;;5048934;28;20372;-82
2021/05/04 06:28:27;;;;;;;7.50;6.18;;;;;;;;;;5047774;28;20411;-82
2021/05/04 06:30:53;;;;;;;7.72;6.35;;;;;;;;;;5050179;28;20429;-83
2021/05/04 06:33:19;;;;;;;7.63;6.30;;;;;;;;;;5049067;28;20380;-83
2021/05/04 06:35:48;;;;;;;6.70;6.00;;;;;;;;;;5048685;28;20372;-84
2021/05/04 06:38:16;;;;;;;6.25;5.65;;;;;;;;;;5048460;28;20427;-84
2021/05/04 06:40:43;;;;;;;7.18;5.97;;;;;;;;;;5050107;28;20372;-82
2021/05/04 06:43:09;;;;;;;6.63;5.93;;;;;;;;;;5048793;28;20441;-83
2021/05/04 06:45:35;;;;;;;8.10;5.75;;;;;;;;;;5048667;28;20866;-83
2021/05/04 06:48:01;;;;;;;6.55;5.82;;;;;;;;;;5049771;28;20395;-83
2021/05/04 06:50:27;;;;;;;6.68;5.80;;;;;;;;;;5049849;28;20886;-83
2021/05/04 06:52:53;;;;;;;7.73;6.00;;;;;;;;;;5049498;28;20379;-83
2021/05/04 06:55:19;;;;;;;7.20;6.13;;;;;;;;;;5049976;28;20779;-83
2021/05/04 06:57:46;;;;;;;6.93;5.63;;;;;;;;;;5049597;28;20368;-86
2021/05/04 07:00:12;;;;;;;7.10;6.07;;;;;;;;;;5048376;28;20437;-82
2021/05/04 07:02:38;;;;;;;6.63;5.35;;;;;;;;;;5050413;28;20382;-85
2021/05/04 07:05:04;;;;;;;6.38;5.78;;;;;;;;;;5050027;28;20379;-87
2021/05/04 07:07:31;;;;;;;7.00;5.90;;;;;;;;;;5049170;28;20471;-86
2021/05/04 07:09:57;;;;;;;8.05;6.38;;;;;;;;;;5050012;28;20955;-86
2021/05/04 07:12:23;;;;;;;6.65;6.03;;;;;;;;;;5051527;28;20368;-86
2021/05/04 07:14:49;;;;;;;7.97;6.60;;;;;;;;;;5051128;28;20449;-86
2021/05/04 07:17:15;;;;;;;8.60;6.47;;;;;;;;;;5048799;28;20467;-85
2021/05/04 07:19:41;;;;;;;9.10;6.38;;;;;;;;;;5049929;28;20376;-88
2021/05/04 07:22:09;;;;;;;8.20;6.40;;;;;;;;;;5048521;28;20376;-84
2021/05/04 07:24:35;;;;;;;8.48;6.00;;;;;;;;;;5048377;28;20388;-84
2021/05/04 07:27:01;;;;;;;7.25;6.22;;;;;;;;;;5023469;28;20465;-87
2021/05/04 07:29:27;;;;;;;6.97;6.25;;;;;;;;;;5026290;28;20488;-88
2021/05/04 07:31:54;;;;;;;6.53;5.93;;;;;;;;;;5023353;28;20480;-86
2021/05/04 07:34:20;;;;;;;7.63;5.90;;;;;;;;;;5008668;28;20956;-86
2021/05/04 07:36:46;;;;;;;7.20;5.72;;;;;;;;;;5007969;28;20466;-86
2021/05/04 07:39:12;;;;;;;5.68;5.07;;;;;;;;;;5008054;28;20383;-86
2021/05/04 07:41:40;;;;;;;5.38;4.88;;;;;;;;;;5008309;28;20888;-83
2021/05/04 07:44:06;;;;;;;6.40;5.25;;;;;;;;;;5013212;28;20386;-86
2021/05/04 07:46:32;;;;;;;5.45;4.78;;;;;;;;;;5029205;28;20495;-85
2021/05/04 07:48:59;;;;;;;5.47;4.85;;;;;;;;;;5028759;28;20402;-88
2021/05/04 07:51:25;;;;;;;5.57;4.63;;;;;;;;;;5028694;28;20361;-83
2021/05/04 07:53:51;;;;;;;6.50;4.60;;;;;;;;;;5029066;28;20385;-85
2021/05/04 07:56:17;;;;;;;5.28;4.75;;;;;;;;;;5027622;28;20373;-86
2021/05/04 07:58:43;;;;;;;5.50;4.30;;;;;;;;;;5020026;28;20463;-86
2021/05/04 08:01:09;;;;;;;8.13;4.53;;;;;;;;;;5028940;28;20795;-84
2021/05/04 08:03:36;;;;;;;4.73;4.10;;;;;;;;;;5029129;28;20388;-86
2021/05/04 08:06:02;;;;;;;5.23;3.93;;;;;;;;;;5027511;28;20480;-85
2021/05/04 08:08:28;;;;;;;6.13;4.53;;;;;;;;;;5004359;28;20414;-86
2021/05/04 08:10:54;;;;;;;6.90;4.45;;;;;;;;;;4988103;28;20816;-86
2021/05/04 08:13:21;;;;;;;6.65;4.25;;;;;;;;;;4992062;28;20400;-86
2021/05/04 08:15:52;;;;;;;5.63;4.07;;;;;;;;;;4998396;28;20447;-87
2021/05/04 08:18:19;;;;;;;5.60;4.30;;;;;;;;;;4988400;28;20435;-86
2021/05/04 08:20:53;;;;;;;5.10;4.10;;;;;;;;;;5001328;28;20493;-86
2021/05/04 08:23:21;;;;;;;4.60;4.20;;;;;;;;;;5008933;28;20383;-85
2021/05/04 08:25:47;;;;;;;4.53;4.03;;;;;;;;;;5009091;28;20711;-85
2021/05/04 08:28:13;;;;;;;5.80;4.15;;;;;;;;;;5007601;28;20880;-86
2021/05/04 08:30:39;;;;;;;4.70;3.80;;;;;;;;;;5007924;28;20390;-86
2021/05/04 08:33:05;;;;;;;4.57;3.78;;;;;;;;;;4992917;28;20970;-86
2021/05/04 08:35:32;;;;;;;5.80;3.85;;;;;;;;;;4988353;28;20395;-86
2021/05/04 08:37:58;;;;;;;4.97;3.35;;;;;;;;;;4989797;28;20481;-87
2021/05/04 08:40:24;;;;;;;4.40;3.60;;;;;;;;;;4988394;28;20397;-86
2021/05/04 08:42:51;;;;;;;5.40;3.60;;;;;;;;;;4989812;28;20385;-87
2021/05/04 08:45:17;;;;;;;4.03;3.63;;;;;;;;;;4994212;28;20484;-84
2021/05/04 08:47:47;;;;;;;5.45;3.88;;;;;;;;;;4987663;28;20878;-88
2021/05/04 08:50:17;;;;;;;4.60;3.60;;;;;;;;;;5005373;28;20394;-86
2021/05/04 08:52:43;;;;;;;4.60;3.20;;;;;;;;;;4983374;28;20451;-88
2021/05/04 08:55:19;;;;;;;4.97;3.40;;;;;;;;;;5003221;28;20386;-89
2021/05/04 08:57:45;;;;;;;4.40;3.30;;;;;;;;;;4991512;28;20545;-86
2021/05/04 09:00:12;;;;;;;5.57;3.35;;;;;;;;;;5000267;28;20390;-86
2021/05/04 09:02:57;;;;;;;4.18;3.78;;;;;;;;;;5011120;28;20475;-86
2021/05/04 09:05:23;;;;;;;4.15;3.58;;;;;;;;;;5012475;28;20437;-86
2021/05/04 09:07:52;;;;;;;3.85;3.50;;;;;;;;;;5012346;28;20379;-87
2021/05/04 09:10:25;;;;;;;4.67;3.10;;;;;;;;;;5010930;28;20391;-88
2021/05/04 09:13:01;;;;;;;3.97;3.10;;;;;;;;;;4998417;28;20408;-85
2021/05/04 09:15:34;;;;;;;4.65;3.17;;;;;;;;;;4991372;28;20392;-88
2021/05/04 09:18:07;;;;;;;5.53;3.50;;;;;;;;;;4991546;28;20471;-86
2021/05/04 09:20:50;;;;;;;4.78;3.13;;;;;;;;;;4991580;28;20472;-86
2021/05/04 09:23:17;;;;;;;5.38;3.05;;;;;;;;;;4992423;28;20409;-87
2021/05/04 09:25:43;;;;;;;3.25;2.90;;;;;;;;;;4991108;28;20416;-86
2021/05/04 09:28:13;;;;;;;7.85;2.92;;;;;;;;;;5000136;28;20450;-86
2021/05/04 09:30:40;;;;;;;7.05;3.28;;;;;;;;;;5009174;28;20410;-87
2021/05/04 09:33:07;;;;;;;5.32;2.90;;;;;;;;;;5008663;28;20916;-84
2021/05/04 09:35:33;;;;;;;6.53;2.83;;;;;;;;;;5009073;28;20378;-84
2021/05/04 09:38:06;;;;;;;5.68;3.00;;;;;;;;;;4992674;28;20476;-85
2021/05/04 09:40:41;;;;;;;6.80;3.40;;;;;;;;;;4992200;28;20389;-86
2021/05/04 09:43:20;;;;;;;4.40;2.53;;;;;;;;;;5011269;28;20442;-86
2021/05/04 09:45:50;;;;;;;5.47;2.50;;;;;;;;;;5004767;28;20599;-83
2021/05/04 09:48:22;;;;;;;6.37;2.90;;;;;;;;;;5009069;28;20454;-82
2021/05/04 09:50:49;;;;;;;5.35;2.95;;;;;;;;;;4992407;28;20426;-83
2021/05/04 09:53:16;;;;;;;8.20;3.03;;;;;;;;;;5001148;28;20831;-84
2021/05/04 09:55:54;;;;;;;5.65;2.53;;;;;;;;;;4990532;28;20392;-84
2021/05/04 09:58:38;;;;;;;5.38;2.17;;;;;;;;;;5007155;28;20380;-86
2021/05/04 10:01:06;;;;;;;9.45;2.63;;;;;;;;;;4994824;28;20469;-84
2021/05/04 10:03:33;;;;;;;4.20;2.28;;;;;;;;;;4996668;28;20411;-83
2021/05/04 10:06:00;;;;;;;4.35;2.10;;;;;;;;;;4990011;28;20396;-84
2021/05/04 10:08:32;;;;;;;3.45;2.15;;;;;;;;;;4989931;28;20420;-82
2021/05/04 10:11:08;;;;;;;5.50;2.00;;;;;;;;;;4999503;28;20802;-84
2021/05/04 10:13:35;;;;;;;6.93;2.50;;;;;;;;;;4991007;28;20381;-85
2021/05/04 10:16:02;;;;;;;5.83;2.07;;;;;;;;;;4989885;28;20794;-81
2021/05/04 10:18:28;;;;;;;6.47;2.17;;;;;;;;;;4989971;28;20415;-84
2021/05/04 10:20:56;;;;;;;9.38;2.42;;;;;;;;;;4990982;28;20396;-86
2021/05/04 10:23:23;;;;;;;8.43;2.40;;;;;;;;;;4989522;28;20408;-84
2021/05/04 10:25:51;;;;;;;7.57;2.40;;;;;;;;;;4991079;28;20377;-83
2021/05/04 10:28:18;;;;;;;6.13;2.33;;;;;;;;;;4989519;28;20401;-82
2021/05/04 10:30:44;;;;;;;4.82;2.05;;;;;;;;;;4991075;28;20472;-85
2021/05/04 10:33:28;;;;;;;8.60;2.20;;;;;;;;;;4990642;28;20787;-87
2021/05/04 10:35:54;;;;;;;3.78;2.25;;;;;;;;;;4991786;28;20395;-86
2021/05/04 10:38:20;;;;;;;6.90;2.03;;;;;;;;;;4989565;28;20728;-86
2021/05/04 10:40:47;;;;;;;8.88;2.42;;;;;;;;;;4990846;28;20778;-85
2021/05/04 10:43:23;;;;;;;5.10;1.90;;;;;;;;;;5007269;28;20388;-86
2021/05/04 10:45:53;;;;;;;11.30;2.33;;;;;;;;;;4994867;28;20397;-84
2021/05/04 10:48:38;;;;;;;7.93;2.20;;;;;;;;;;5008091;28;20415;-86
2021/05/04 10:51:14;;;;;;;8.73;2.50;;;;;;;;;;4992218;28;20405;-85
2021/05/04 10:53:49;;;;;;;7.15;2.22;;;;;;;;;;4989941;28;20396;-87
2021/05/04 10:56:16;;;;;;;7.75;2.10;;;;;;;;;;4989433;28;20486;-83
2021/05/04 10:58:46;;;;;;;8.75;2.10;;;;;;;;;;4999195;28;20413;-86
2021/05/04 11:01:17;;;;;;;6.38;2.00;;;;;;;;;;5013696;28;20490;-84
2021/05/04 11:03:47;;;;;;;9.85;2.22;;;;;;;;;;5014223;28;20736;-84
2021/05/04 11:06:14;;;;;;;12.80;1.88;;;;;;;;;;5013905;28;20390;-84
2021/05/04 11:08:41;;;;;;;7.93;2.05;;;;;;;;;;5013647;28;20417;-85
2021/05/04 11:11:23;;;;;;;9.40;2.00;;;;;;;;;;5014810;28;20518;-85
2021/05/04 11:13:49;;;;;;;11.43;2.63;;;;;;;;;;5015189;28;21334;-84
2021/05/04 11:16:33;;;;;;;8.07;2.20;;;;;;;;;;5014638;28;20413;-84
2021/05/04 11:19:03;;;;;;;7.45;2.40;;;;;;;;;;5014980;28;20886;-86
2021/05/04 11:21:46;;;;;;;13.38;2.35;;;;;;;;;;5012322;28;20921;-86
2021/05/04 11:24:12;;;;;;;12.80;2.47;;;;;;;;;;5012336;28;20529;-85
2021/05/04 11:26:48;;;;;;;12.23;2.47;;;;;;;;;;5013679;28;20394;-87
2021/05/04 11:29:15;;;;;;;9.25;2.03;;;;;;;;;;5013473;28;20456;-85
2021/05/04 11:31:42;;;;;;;9.68;2.70;;;;;;;;;;5013949;28;20872;-86
2021/05/04 11:34:27;;;;;;;8.65;2.05;;;;;;;;;;5012843;28;22091;-86
2021/05/04 11:36:53;;;;;;;10.13;2.03;;;;;;;;;;5013789;28;20389;-86
2021/05/04 11:39:19;;;;;;;11.60;2.15;;;;;;;;;;5013014;28;20964;-86
2021/05/04 11:41:55;;;;;;;7.28;1.90;;;;;;;;;;5013557;28;20389;-85
2021/05/04 11:44:29;;;;;;;8.43;1.95;;;;;;;;;;5013410;28;20403;-86
2021/05/04 11:46:56;;;;;;;13.20;2.53;;;;;;;;;;5012374;28;20384;-86
2021/05/04 11:49:26;;;;;;;6.50;2.20;;;;;;;;;;5012562;28;20861;-85
2021/05/04 11:52:04;;;;;;;9.95;1.75;;;;;;;;;;5012558;28;20388;-88
2021/05/04 11:54:34;;;;;;;6.82;1.90;;;;;;;;;;5014495;28;20387;-85
2021/05/04 11:57:01;;;;;;;6.50;1.70;;;;;;;;;;5014297;28;20445;-87
2021/05/04 11:59:29;;;;;;;9.43;2.08;;;;;;;;;;4967563;28;1286991;-91
2021/05/04 12:01:56;;;;;;;4.90;2.00;;;;;;;;;;5014506;28;20383;-83
2021/05/04 12:04:41;;;;;;;8.27;2.10;;;;;;;;;;5017722;28;20362;-85
2021/05/04 12:07:07;;;;;;;7.40;2.08;;;;;;;;;;5014776;28;20387;-86
2021/05/04 12:09:36;;;;;;;9.25;2.10;;;;;;;;;;5014368;28;20417;-86
2021/05/04 12:12:12;;;;;;;9.40;2.03;;;;;;;;;;5012743;28;20455;-86
2021/05/04 12:15:00;;;;;;;8.88;2.00;;;;;;;;;;5014278;28;20400;-84
2021/05/04 12:17:26;;;;;;;8.15;2.08;;;;;;;;;;5010992;28;20433;-85
2021/05/04 12:19:53;;;;;;;8.75;2.00;;;;;;;;;;5012913;28;20902;-87
2021/05/04 12:22:19;;;;;;;5.90;1.90;;;;;;;;;;5013025;28;20394;-84
2021/05/04 12:24:45;;;;;;;6.50;2.00;;;;;;;;;;5012255;28;20382;-84
2021/05/04 12:27:11;;;;;;;9.25;2.35;;;;;;;;;;5012480;28;20441;-84
2021/05/04 12:29:37;;;;;;;4.97;1.95;;;;;;;;;;5016909;28;20404;-83
2021/05/04 12:32:03;;;;;;;5.80;2.10;;;;;;;;;;5016775;28;20395;-83
2021/05/04 12:34:29;;;;;;;3.70;1.93;;;;;;;;;;5017945;28;20394;-85
2021/05/04 12:36:58;;;;;;;6.30;2.00;;;;;;;;;;5014769;28;20484;-84
2021/05/04 12:39:28;;;;;;;4.53;1.90;;;;;;;;;;5016151;28;20402;-83
2021/05/04 12:41:57;;;;;;;5.03;2.30;;;;;;;;;;5018311;28;20367;-83
2021/05/04 12:44:27;;;;;;;6.75;2.08;;;;;;;;;;5016121;28;20420;-84
2021/05/04 12:46:54;;;;;;;6.37;1.93;;;;;;;;;;5019411;28;20401;-84
2021/05/04 12:49:20;;;;;;;10.35;2.13;;;;;;;;;;5018763;28;20853;-85
2021/05/04 12:51:54;;;;;;;6.35;1.80;;;;;;;;;;5006944;28;20414;-85
2021/05/04 12:54:21;;;;;;;6.25;2.15;;;;;;;;;;4990549;28;20726;-86
2021/05/04 12:56:51;;;;;;;9.90;1.83;;;;;;;;;;4992651;28;20435;-87
2021/05/04 12:59:26;;;;;;;6.47;1.70;;;;;;;;;;4990713;28;20425;-86
2021/05/04 13:01:53;;;;;;;4.18;1.92;;;;;;;;;;4991123;28;20393;-87
2021/05/04 13:04:42;;;;;;;8.23;1.70;;;;;;;;;;4991803;28;20384;-87
2021/05/04 13:07:27;;;;;;;11.48;2.15;;;;;;;;;;4992943;28;20925;-89
2021/05/04 13:10:37;;;;;;;6.40;1.90;;;;;;;;;;4991474;28;20847;-89
2021/05/04 13:34:35;;;;;;;8.68;1.50;;;;;;;;;;5011741;28;20763;-83
2021/05/04 13:37:03;;;;;;;10.68;1.50;;;;;;;;;;5010950;28;20458;-86
2021/05/04 13:47:38;;;;;;;9.85;1.80;;;;;;;;;;4997996;28;20459;-82
2021/05/04 13:50:06;;;;;;;11.07;1.73;;;;;;;;;;4991571;28;20887;-83
2021/05/04 13:52:32;;;;;;;11.67;1.67;;;;;;;;;;4991364;28;20443;-84
2021/05/04 13:54:58;;;;;;;11.00;1.97;;;;;;;;;;4993543;28;20520;-84
2021/05/04 13:57:26;;;;;;;7.40;1.80;;;;;;;;;;4991567;28;20532;-83
2021/05/04 13:59:54;;;;;;;6.75;1.73;;;;;;;;;;4989642;28;20392;-83
2021/05/04 14:17:48;;;;;;;9.88;1.83;;;;;;;;;;4998067;28;20387;-84
2021/05/04 14:27:00;;;;;;;7.35;1.80;;;;;;;;;;4994223;28;20399;-84
2021/05/04 14:29:27;;;;;;;9.60;2.03;;;;;;;;;;4990886;28;20463;-83
2021/05/04 14:31:53;;;;;;;11.00;2.00;;;;;;;;;;5004563;28;20467;-84
2021/05/04 14:34:19;;;;;;;9.20;1.70;;;;;;;;;;5008779;28;20397;-84
2021/05/04 15:02:57;;;;;;;12.80;2.10;;;;;;;;;;4990425;28;20752;-84
2021/05/04 15:05:28;;;;;;;15.43;2.20;;;;;;;;;;5008782;28;20383;-86
2021/05/04 15:07:55;;;;;;;18.52;2.60;;;;;;;;;;5008149;28;20379;-84
2021/05/04 15:10:22;;;;;;;13.20;2.03;;;;;;;;;;5003685;28;20393;-85
2021/05/04 15:12:48;;;;;;;10.03;2.00;;;;;;;;;;4990009;28;20409;-86
2021/05/04 15:23:02;;;;;;;15.80;2.03;;;;;;;;;;5009802;28;20390;-85
2021/05/04 15:25:28;;;;;;;16.40;2.60;;;;;;;;;;5003228;28;20799;-86
2021/05/04 15:27:54;;;;;;;11.63;2.28;;;;;;;;;;4988200;28;20380;-87
2021/05/04 15:30:20;;;;;;;13.18;2.50;;;;;;;;;;4991560;28;20418;-84
2021/05/04 15:35:25;;;;;;;11.45;2.03;;;;;;;;;;5005446;28;20397;-85
2021/05/04 15:37:51;;;;;;;10.88;2.05;;;;;;;;;;5002737;28;20435;-84
2021/05/04 15:40:17;;;;;;;12.10;2.08;;;;;;;;;;5003521;28;20385;-84
2021/05/04 15:42:44;;;;;;;16.80;2.60;;;;;;;;;;5007094;28;20391;-84
2021/05/04 15:45:11;;;;;;;15.50;2.38;;;;;;;;;;5004803;28;20436;-83
2021/05/04 16:03:47;;;;;;;17.58;3.38;;;;;;;;;;4996461;28;20409;-86
2021/05/04 16:06:22;;;;;;;15.60;2.50;;;;;;;;;;5003612;28;20751;-86
2021/05/04 16:09:01;;;;;;;13.55;2.28;;;;;;;;;;5005601;28;20427;-90
2021/05/04 16:11:28;;;;;;;15.00;2.70;;;;;;;;;;5000244;28;20882;-87
2021/05/04 16:13:56;;;;;;;14.45;2.45;;;;;;;;;;5007973;28;20414;-85
2021/05/04 16:16:22;;;;;;;11.95;2.35;;;;;;;;;;5002902;28;20911;-86
2021/05/04 16:19:15;;;;;;;6.88;1.63;;;;;;;;;;5004338;28;20424;-85
2021/05/04 16:21:40;;;;;;;4.35;1.75;;;;;;;;;;5006552;28;20376;-87
2021/05/04 16:31:44;;;;;;;5.60;2.00;;;;;;;;;;5003139;28;20387;-86
2021/05/04 16:34:09;;;;;;;4.38;1.50;;;;;;;;;;5006818;28;20390;-84